Pagrindinis puslapis
METAR-TAF:

METAR-TAF

Oro uostai :

Kirkenesas, Norvegija

platuma: 69-44N, ilguma: 029-54E, Aukštis: 9 m

Dabartinis oras

Ataskaita buvo paskelbta 19 minutes, ne 08:20 UTC
Vėjas 12 kt iš Vakarų
Temperatūra 12°C
Drėgmė 82%
Slėgis 1018 hPa
Matomumas 10 km arba daugiau
Išsisklaidę debesys ne aukštis 1500 ft
Su prošvaistėmis ne aukštis 3900 ft

METAR: ENKR 010820Z 26012KT 9999 SCT015 BKN039 12/09 Q1018 RMK WIND 731FT 25024KT

Laikas: 10:39 (08:39 UTC)

Prognozė

Ataskaita buvo paskelbta 3 valandos ir 39 minutes, ne 05:00 UTC
Prognozė galioja nuo 01 metu 06 UTC su 01 metu 15 UTC
Vėjas 8 kt iš Pietų
Matomumas 10 km arba daugiau
Mažai debesys ne aukštis 1500 ft
Su prošvaistėmis ne aukštis 3500 ft
Tapsmas
nuo 01 metu 07 UTC su 01 metu 09 UTC
Vėjas 10 kt iš Vakarų/Pietvakarių

TAF: ENKR 010500Z 0106/0115 19008KT 9999 FEW015 BKN035 BECMG 0107/0109 25010KT

Orai ataskaitas ir orų prognozės (METAR, TAF).

turimą stotys yra geltonos ir raudonos taškus žemėlapyje.

Perkelti pele per norėdami pamatyti stoties vardą.

Tada spustelėkite, norėdami matyti oro stebėjimo ir prognozės.

Norėdami pakeisti žemėlapį: spustelėkite ant žalios mygtukų su juodo kryžiaus žemyn,; žalią mygtuką su brūkšneliu, jei norite nutolinti; arba žalių rodyklių gretimoms žemėlapius.


METAR-TAF: